createdAt,value
2022-08-22T00:06:16.582Z,0.90
2022-08-22T00:16:59.325Z,0.40
2022-08-22T00:27:34.575Z,0.20
2022-08-22T00:38:09.233Z,0.20
2022-08-22T00:49:10.407Z,0.30
2022-08-22T01:00:04.692Z,0.70
2022-08-22T01:10:55.953Z,0.70
2022-08-22T01:22:10.188Z,0.40
2022-08-22T01:33:09.898Z,0.20
2022-08-22T01:44:00.900Z,0.10
2022-08-22T01:54:49.989Z,0.10
2022-08-22T02:05:32.201Z,0.20
2022-08-22T02:16:12.560Z,0.50
2022-08-22T02:26:51.866Z,1.70
2022-08-22T02:37:31.487Z,2.90
2022-08-22T02:48:06.912Z,2.60
2022-08-22T02:58:53.865Z,3.40
2022-08-22T03:09:32.996Z,3.70
2022-08-22T03:20:11.225Z,3.10
2022-08-22T03:30:46.181Z,2.60
2022-08-22T03:41:41.532Z,4.30
2022-08-22T03:52:34.557Z,2.50
2022-08-22T04:03:33.168Z,2.40
2022-08-22T04:14:23.239Z,3.20
2022-08-22T04:25:04.686Z,2.50
2022-08-22T04:35:43.081Z,4.30
2022-08-22T04:46:17.927Z,5.10
2022-08-22T04:57:04.323Z,6.00
2022-08-22T05:07:39.287Z,6.60
2022-08-22T05:18:11.732Z,6.10
2022-08-22T05:28:44.171Z,6.70
2022-08-22T05:39:17.897Z,7.90
2022-08-22T05:49:55.939Z,8.30
2022-08-22T06:00:27.936Z,8.10
2022-08-22T06:11:01.572Z,8.30
2022-08-22T06:21:37.167Z,9.10
2022-08-22T06:32:15.734Z,9.10
2022-08-22T06:42:48.290Z,7.30
2022-08-22T06:53:20.518Z,7.40
2022-08-22T07:03:53.043Z,6.10
2022-08-22T07:14:30.006Z,6.40
2022-08-22T07:25:03.190Z,6.40
2022-08-22T07:35:37.047Z,5.20
2022-08-22T07:46:18.521Z,7.00
2022-08-22T07:56:55.341Z,7.10
2022-08-22T08:07:28.526Z,9.00
2022-08-22T08:18:02.574Z,8.20
2022-08-22T08:28:38.457Z,6.80
2022-08-22T08:39:17.502Z,5.20
2022-08-22T08:49:59.272Z,5.20
2022-08-22T09:00:46.019Z,4.70
2022-08-22T09:12:01.084Z,4.80
2022-08-22T09:22:51.034Z,5.20
2022-08-22T09:33:24.781Z,5.10
2022-08-22T09:44:04.841Z,5.20
2022-08-22T09:54:42.745Z,5.40
2022-08-22T10:05:35.256Z,6.30
2022-08-22T10:16:21.869Z,6.80
2022-08-22T10:26:54.849Z,7.10
2022-08-22T10:37:31.491Z,7.00
2022-08-22T10:48:36.255Z,7.00
2022-08-22T10:59:14.235Z,7.70
2022-08-22T11:09:51.511Z,8.40
2022-08-22T11:20:34.371Z,8.80
2022-08-22T11:31:11.212Z,8.20
2022-08-22T11:41:48.399Z,9.00
2022-08-22T11:52:54.618Z,10.10
2022-08-22T12:03:36.438Z,12.00
2022-08-22T12:14:17.566Z,11.70
2022-08-22T12:25:05.205Z,13.10
2022-08-22T12:35:43.683Z,13.10
2022-08-22T12:46:19.626Z,12.10
2022-08-22T12:56:59.589Z,14.00
2022-08-22T13:07:31.922Z,14.00
2022-08-22T13:18:25.121Z,16.20
2022-08-22T13:29:24.133Z,18.70
2022-08-22T13:50:24.796Z,17.80
2022-08-22T14:01:20.444Z,16.90
2022-08-22T14:12:02.375Z,18.50
2022-08-22T14:22:35.137Z,19.50
2022-08-22T14:33:13.654Z,20.50
2022-08-22T14:43:54.575Z,17.40
2022-08-22T14:54:28.994Z,18.00
2022-08-22T15:05:01.947Z,19.00
2022-08-22T15:15:49.805Z,19.30
2022-08-22T15:26:28.578Z,17.80
2022-08-22T15:37:29.984Z,18.20
2022-08-22T15:48:04.444Z,17.10
2022-08-22T15:58:37.509Z,17.20
2022-08-22T16:09:07.387Z,15.20
2022-08-22T16:19:38.574Z,15.10
2022-08-22T16:30:16.850Z,15.10
2022-08-22T16:40:50.724Z,14.60
2022-08-22T16:51:22.365Z,13.60
2022-08-22T17:02:15.966Z,15.40
2022-08-22T17:12:56.400Z,14.60
2022-08-22T17:23:40.690Z,14.80
2022-08-22T17:34:30.286Z,15.90
2022-08-22T17:45:12.846Z,16.50
2022-08-22T17:56:00.268Z,12.50
2022-08-22T18:06:32.432Z,10.30
2022-08-22T18:17:02.484Z,11.50
2022-08-22T18:27:38.587Z,11.50
2022-08-22T18:38:19.793Z,12.30
2022-08-22T18:49:12.060Z,12.80
2022-08-22T18:59:59.921Z,11.40
2022-08-22T19:10:55.753Z,11.40
2022-08-22T19:21:46.474Z,11.90
2022-08-22T19:32:52.327Z,11.60
2022-08-22T19:43:38.850Z,13.00
2022-08-22T19:54:25.363Z,14.50
2022-08-22T20:05:13.086Z,13.90
2022-08-22T20:16:06.880Z,13.20
2022-08-22T20:26:51.960Z,13.90
2022-08-22T20:38:03.370Z,14.60
2022-08-22T20:48:19.708Z,15.90
2022-08-22T20:58:49.344Z,6.30
2022-08-22T21:09:39.804Z,5.40
2022-08-22T21:20:23.587Z,4.10
2022-08-22T21:30:53.073Z,4.00
2022-08-22T21:41:30.982Z,4.10
2022-08-22T21:51:59.989Z,4.60
2022-08-22T22:02:38.237Z,4.40
2022-08-22T22:13:09.309Z,4.40
2022-08-22T22:23:38.111Z,4.30
2022-08-22T22:34:07.154Z,2.60
2022-08-22T22:44:36.037Z,2.70
2022-08-22T22:55:05.477Z,7.10
2022-08-22T23:05:35.422Z,3.20
2022-08-22T23:16:10.068Z,2.00
2022-08-22T23:26:39.756Z,4.10
2022-08-22T23:37:09.676Z,4.40
2022-08-22T23:47:38.499Z,4.20
2022-08-22T23:58:07.959Z,3.50
